地図

経路データ

SID SEASON NUMBER BASIN SUBBASIN NAME ISO_TIME NATURE LAT LON WMO_WIND WMO_PRES WMO_AGENCY TRACK_TYPE DIST2LAND LANDFALL IFLAG USA_AGENCY USA_ATCF_ID USA_LAT USA_LON USA_RECORD USA_STATUS USA_WIND USA_PRES USA_SSHS USA_R34_NE USA_R34_SE USA_R34_SW USA_R34_NW USA_R50_NE USA_R50_SE USA_R50_SW USA_R50_NW USA_R64_NE USA_R64_SE USA_R64_SW USA_R64_NW USA_POCI USA_ROCI USA_RMW USA_EYE TOKYO_LAT TOKYO_LON TOKYO_GRADE TOKYO_WIND TOKYO_PRES TOKYO_R50_DIR TOKYO_R50_LONG TOKYO_R50_SHORT TOKYO_R30_DIR TOKYO_R30_LONG TOKYO_R30_SHORT TOKYO_LAND CMA_LAT CMA_LON CMA_CAT CMA_WIND CMA_PRES HKO_LAT HKO_LON HKO_CAT HKO_WIND HKO_PRES NEWDELHI_LAT NEWDELHI_LON NEWDELHI_GRADE NEWDELHI_WIND NEWDELHI_PRES NEWDELHI_CI NEWDELHI_DP NEWDELHI_POCI REUNION_LAT REUNION_LON REUNION_TYPE REUNION_WIND REUNION_PRES REUNION_TNUM REUNION_CI REUNION_RMW REUNION_R34_NE REUNION_R34_SE REUNION_R34_SW REUNION_R34_NW REUNION_R50_NE REUNION_R50_SE REUNION_R50_SW REUNION_R50_NW REUNION_R64_NE REUNION_R64_SE REUNION_R64_SW REUNION_R64_NW BOM_LAT BOM_LON BOM_TYPE BOM_WIND BOM_PRES BOM_TNUM BOM_CI BOM_RMW BOM_R34_NE BOM_R34_SE BOM_R34_SW BOM_R34_NW BOM_R50_NE BOM_R50_SE BOM_R50_SW BOM_R50_NW BOM_R64_NE BOM_R64_SE BOM_R64_SW BOM_R64_NW BOM_ROCI BOM_POCI BOM_EYE BOM_POS_METHOD BOM_PRES_METHOD NADI_LAT NADI_LON NADI_CAT NADI_WIND NADI_PRES WELLINGTON_LAT WELLINGTON_LON WELLINGTON_WIND WELLINGTON_PRES DS824_LAT DS824_LON DS824_STAGE DS824_WIND DS824_PRES TD9636_LAT TD9636_LON TD9636_STAGE TD9636_WIND TD9636_PRES TD9635_LAT TD9635_LON TD9635_WIND TD9635_PRES TD9635_ROCI NEUMANN_LAT NEUMANN_LON NEUMANN_CLASS NEUMANN_WIND NEUMANN_PRES MLC_LAT MLC_LON MLC_CLASS MLC_WIND MLC_PRES USA_GUST BOM_GUST BOM_GUST_PER REUNION_GUST REUNION_GUST_PER USA_SEAHGT USA_SEARAD_NE USA_SEARAD_SE USA_SEARAD_SW USA_SEARAD_NW STORM_SPEED STORM_DIR
1934018S14156 1934 7 SP EA NOT_NAMED 1934-01-17 23:00:00 NR -14.2500 156.050 bom main 636 643 ______O___O___ -1 -14.1000 156.100 -14.4000 156.000 7 6 277
1934018S14156 1934 7 SP EA NOT_NAMED 1934-01-18 00:00:00 TS -14.2399 155.956 main 643 643 ______P__OP___ -1 -14.1311 156.003 -14.1000 156.000 TC -14.4186 155.886 7 6 261
1934018S14156 1934 7 SP EA NOT_NAMED 1934-01-18 03:00:00 TS -14.3098 155.648 main 674 664 ______P__PP___ -1 -14.2240 155.708 -14.1932 155.703 TC -14.4734 155.551 7 6 256
1934018S14156 1934 7 SP EA NOT_NAMED 1934-01-18 06:00:00 TS -14.3838 155.344 main 656 639 ______P__PP___ -1 -14.3160 155.409 -14.2856 155.402 TC -14.5252 155.236 7 6 256
1934018S14156 1934 7 SP EA NOT_NAMED 1934-01-18 09:00:00 TS -14.4519 155.050 main 639 631 ______P__PP___ -1 -14.4067 155.099 -14.3769 155.093 TC -14.5722 154.958 7 6 256
1934018S14156 1934 7 SP EA NOT_NAMED 1934-01-18 11:00:00 TS -14.5010 154.855 main 631 623 ______P__PO___ -1 -14.4663 154.885 -14.4369 154.881 TC -14.6000 154.800 7 6 255
1934018S14156 1934 7 SP EA NOT_NAMED 1934-01-18 12:00:00 TS -14.5250 154.760 main 623 608 ______P__PP___ -1 -14.4957 154.775 -14.4665 154.773 TC -14.6127 154.731 7 6 256
1934018S14156 1934 7 SP EA NOT_NAMED 1934-01-18 15:00:00 TS -14.5954 154.472 main 608 594 ______P__PP___ -1 -14.5826 154.433 -14.5542 154.437 TC -14.6495 154.546 7 6 256
1934018S14156 1934 7 SP EA NOT_NAMED 1934-01-18 18:00:00 TS -14.6659 154.170 main 595 575 ______P__PP___ -1 -14.6669 154.069 -14.6393 154.082 TC -14.6917 154.358 7 6 257
1934018S14156 1934 7 SP EA NOT_NAMED 1934-01-18 21:00:00 TS -14.7394 153.833 main 569 565 ______P__PP___ -1 -14.7479 153.678 -14.7214 153.704 TC -14.7489 154.116 7 7 258
1934018S14156 1934 7 SP EA NOT_NAMED 1934-01-18 23:00:00 TS -14.7914 153.579 bom main 565 559 ______O__PO___ -1 -14.8000 153.400 -14.7742 153.438 TC -14.8000 153.900 7 8 258
1934018S14156 1934 7 SP EA NOT_NAMED 1934-01-19 00:00:00 TS -14.8187 153.437 main 554 542 ______P__OP___ -1 -14.8254 153.256 -14.8000 153.300 TC -14.8306 153.757 7 9 259
1934018S14156 1934 7 SP EA NOT_NAMED 1934-01-19 03:00:00 TS -14.9041 152.975 main 542 528 ______P__PP___ -1 -14.8992 152.805 -14.8748 152.868 TC -14.9383 153.253 7 9 259
1934018S14156 1934 7 SP EA NOT_NAMED 1934-01-19 06:00:00 TS -14.9941 152.478 main 529 518 ______P__PP___ -1 -14.9707 152.338 -14.9468 152.417 TC -15.0647 152.679 7 10 259
1934018S14156 1934 7 SP EA NOT_NAMED 1934-01-19 09:00:00 TS -15.0873 151.970 main 522 512 ______P__PP___ -1 -15.0410 151.867 -15.0173 151.960 TC -15.2035 152.084 7 10 259
1934018S14156 1934 7 SP EA NOT_NAMED 1934-01-19 11:00:00 TS -15.1507 151.638 main 520 517 ______P__PO___ -1 -15.0880 151.558 -15.0642 151.657 TC -15.3000 151.700 7 10 259
1934018S14156 1934 7 SP EA NOT_NAMED 1934-01-19 12:00:00 TS -15.1829 151.476 main 517 511 ______P__PP___ -1 -15.1117 151.406 -15.0877 151.508 TC -15.3491 151.513 7 9 258
1934018S14156 1934 7 SP EA NOT_NAMED 1934-01-19 15:00:00 TS -15.2824 151.001 main 519 516 ______P__PP___ -1 -15.1844 150.966 -15.1596 151.074 TC -15.5032 150.962 7 9 257
1934018S14156 1934 7 SP EA NOT_NAMED 1934-01-19 18:00:00 TS -15.3849 150.561 main 526 486 ______P__PP___ -1 -15.2605 150.562 -15.2344 150.670 TC -15.6596 150.453 7 8 255
1934018S14156 1934 7 SP EA NOT_NAMED 1934-01-19 21:00:00 TS -15.4883 150.179 main 486 462 ______P__PP___ -1 -15.3419 150.205 -15.3140 150.308 TC -15.8090 150.023 7 7 253
1934018S14156 1934 7 SP EA NOT_NAMED 1934-01-19 23:00:00 TS -15.5568 149.965 984 bom main 462 452 ______O__PO___ -1 -15.4000 150.000 984 4 -15.3705 150.096 TC -15.9000 149.800 7 6 251
1934018S14156 1934 7 SP EA NOT_NAMED 1934-01-20 00:00:00 TS -15.5900 149.878 main 452 428 ______P__OP___ -1 -15.4328 149.920 -15.4000 150.000 TC 55 984 -15.9373 149.713 7 5 244
1934018S14156 1934 7 SP EA NOT_NAMED 1934-01-20 03:00:00 TS -15.6917 149.680 main 428 413 ______P__PP___ -1 -15.5365 149.720 -15.5012 149.789 TC -16.0375 149.531 7 4 237
1934018S14156 1934 7 SP EA NOT_NAMED 1934-01-20 06:00:00 TS -15.7955 149.549 main 404 399 ______P__PP___ -1 -15.6468 149.572 -15.6095 149.632 TC -16.1300 149.443 7 3 225
1934018S14156 1934 7 SP EA NOT_NAMED 1934-01-20 09:00:00 TS -15.9040 149.464 main 399 384 ______P__PP___ -1 -15.7618 149.465 -15.7232 149.517 TC -16.2269 149.410 7 3 213
1934018S14156 1934 7 SP EA NOT_NAMED 1934-01-20 11:00:00 TS -15.9803 149.424 main 384 384 ______P__PO___ -1 -15.8401 149.412 -15.8009 149.459 TC -16.3000 149.400 7 3 208
1934018S14156 1934 7 SP EA NOT_NAMED 1934-01-20 12:00:00 TS -16.0201 149.400 main 384 370 ______P__PP___ -1 -15.8794 149.389 -15.8401 149.434 TC -16.3408 149.375 7 3 206
1934018S14156 1934 7 SP EA NOT_NAMED 1934-01-20 15:00:00 TS -16.1431 149.340 main 370 362 ______P__PP___ -1 -15.9976 149.333 -15.9583 149.372 TC -16.4733 149.316 7 3 201
1934018S14156 1934 7 SP EA NOT_NAMED 1934-01-20 18:00:00 TS -16.2703 149.296 main 362 358 ______P__PP___ -1 -16.1144 149.286 -16.0757 149.319 TC -16.6208 149.282 7 3 196
1934018S14156 1934 7 SP EA NOT_NAMED 1934-01-20 21:00:00 TS -16.4004 149.261 main 358 344 ______P__PP___ -1 -16.2275 149.238 -16.1903 149.266 TC -16.7833 149.280 7 3 193
1934018S14156 1934 7 SP EA NOT_NAMED 1934-01-20 23:00:00 TS -16.4880 149.241 bom main 344 344 ______O__PO___ -1 -16.3000 149.200 -16.2641 149.224 TC -16.9000 149.300 7 3 184
1934018S14156 1934 7 SP EA NOT_NAMED 1934-01-21 00:00:00 TS -16.5313 149.233 main 344 338 ______P__OP___ -1 -16.3353 149.186 -16.3000 149.200 TC -16.9587 149.313 7 3 0
1934018S14156 1934 7 SP EA NOT_NAMED 1934-01-21 03:00:00 TS -16.6626 149.214 main 338 336 ______P__PP___ -1 -16.4392 149.151 -16.4031 149.113 TC -17.1454 149.378 7 3 186
1934018S14156 1934 7 SP EA NOT_NAMED 1934-01-21 06:00:00 TS -16.7950 149.201 main 336 334 ______P__PP___ -1 -16.5396 149.119 -16.5001 149.007 TC -17.3454 149.476 7 3 183
1934018S14156 1934 7 SP EA NOT_NAMED 1934-01-21 09:00:00 TS -16.9277 149.187 main 334 329 ______P__PP___ -1 -16.6357 149.075 -16.5918 148.882 TC -17.5557 149.603 7 3 0
1934018S14156 1934 7 SP EA NOT_NAMED 1934-01-21 11:00:00 TS -17.0157 149.174 main 329 319 ______P__PO___ -1 -16.6969 149.032 -16.6503 148.791 TC -17.7000 149.700 7 3 186
1934018S14156 1934 7 SP EA NOT_NAMED 1934-01-21 12:00:00 TS -17.0582 149.159 main 319 304 ______P__PP___ -1 -16.7266 149.005 -16.6789 148.743 TC -17.7731 149.751 7 3 201
1934018S14156 1934 7 SP EA NOT_NAMED 1934-01-21 15:00:00 TS -17.1848 149.105 main 304 298 ______P__PP___ -1 -16.8113 148.895 -16.7625 148.593 TC -17.9952 149.916 7 3 228
1934018S14156 1934 7 SP EA NOT_NAMED 1934-01-21 18:00:00 TS -17.2303 148.961 main 298 277 ______P__PP___ -1 -16.8890 148.731 -16.8433 148.433 TC -18.2206 150.092 7 3 253
1934018S14156 1934 7 SP EA NOT_NAMED 1934-01-21 21:00:00 TS -17.2746 148.798 main 277 265 ______P__PP___ -1 -16.9586 148.499 -16.9221 148.268 TC -18.4480 150.275 7 5 271
1934018S14156 1934 7 SP EA NOT_NAMED 1934-01-21 23:00:00 TS -17.2212 148.559 bom main 266 227 ______O__PO___ -1 -17.0000 148.300 -16.9741 148.156 TC -18.6000 150.400 7 13 293
1934018S14156 1934 7 SP EA NOT_NAMED 1934-01-22 00:00:00 TS -17.0171 148.161 main 227 183 ______P__O____ -1 -17.0213 148.177 -17.0000 148.100 TC 7 12 280
1934018S14156 1934 7 SP EA NOT_NAMED 1934-01-22 03:00:00 NR -17.0791 147.754 main 183 131 ______P_______ -1 -17.0791 147.754 TC 7 9 263
1934018S14156 1934 7 SP EA NOT_NAMED 1934-01-22 06:00:00 NR -17.1268 147.274 main 131 77 ______P_______ -1 -17.1268 147.274 TC 7 10 265
1934018S14156 1934 7 SP EA NOT_NAMED 1934-01-22 09:00:00 NR -17.1638 146.761 main 77 38 ______P_______ -1 -17.1638 146.761 TC 7 10 266
1934018S14156 1934 7 SP EA NOT_NAMED 1934-01-22 11:00:00 NR -17.1821 146.413 main 38 30 ______P_______ -1 -17.1821 146.413 TC 10 267
1934018S14156 1934 7 SP EA NOT_NAMED 1934-01-22 12:00:00 NR -17.1894 146.240 main 24 0 ______P_______ -1 -17.1894 146.240 TC 10 268
1934018S14156 1934 7 SP EA NOT_NAMED 1934-01-22 14:00:00 NR -17.2000 145.900 bom main 0 0 ______O_______ -1 -17.2000 145.900 TC 10 268
1934018S14156 1934 7 SP EA NOT_NAMED 1934-01-22 15:00:00 NR -17.2034 145.735 main 0 0 ______P_______ -1 -17.2034 145.735 TC 9 269
1934018S14156 1934 7 SP EA NOT_NAMED 1934-01-22 18:00:00 NR -17.2071 145.258 main 0 0 ______P_______ -1 -17.2071 145.258 TC 9 270
1934018S14156 1934 7 SP EA NOT_NAMED 1934-01-22 21:00:00 NR -17.2041 144.800 main 0 0 ______P_______ -1 -17.2041 144.800 TC 9 271
1934018S14156 1934 7 SP EA NOT_NAMED 1934-01-22 23:00:00 NR -17.2000 144.500 bom main 0 ______O_______ -1 -17.2000 144.500 TC 9 271

デジタル台風データ・検索

IBTrACS Databaseについて

本データベースは、米国NOAAが公開する1842年以降の世界の熱帯低気圧のベストトラックデータアーカイブInternational Best Track Archive for Climate Stewardship (IBTrACS)を、ウェブで閲覧しやすい形式に変換したものです。

最終更新日:2021-10-08